createdAt,value
2023-01-19T00:00:45.930Z,12.07
2023-01-19T00:03:15.793Z,12.75
2023-01-19T00:05:46.563Z,11.20
2023-01-19T00:08:17.054Z,10.05
2023-01-19T00:10:45.936Z,10.55
2023-01-19T00:13:13.076Z,13.10
2023-01-19T00:15:39.736Z,11.68
2023-01-19T00:18:06.856Z,10.85
2023-01-19T00:20:35.623Z,12.18
2023-01-19T00:23:04.675Z,11.27
2023-01-19T00:25:31.534Z,12.43
2023-01-19T00:28:00.512Z,11.02
2023-01-19T00:30:28.591Z,11.65
2023-01-19T00:32:55.541Z,11.00
2023-01-19T00:35:22.129Z,10.77
2023-01-19T00:37:48.694Z,12.20
2023-01-19T00:40:15.382Z,12.45
2023-01-19T00:42:44.281Z,12.13
2023-01-19T00:45:14.183Z,11.32
2023-01-19T00:47:40.985Z,11.82
2023-01-19T00:50:11.859Z,13.88
2023-01-19T00:52:41.560Z,10.27
2023-01-19T00:55:09.642Z,10.57
2023-01-19T00:57:36.351Z,11.85
2023-01-19T01:00:06.463Z,11.30
2023-01-19T01:02:33.832Z,10.57
2023-01-19T01:05:02.753Z,10.80
2023-01-19T01:07:30.374Z,11.75
2023-01-19T01:09:57.424Z,12.63
2023-01-19T01:12:24.850Z,10.55
2023-01-19T01:14:51.491Z,12.02
2023-01-19T01:17:18.178Z,10.75
2023-01-19T01:19:44.760Z,10.60
2023-01-19T01:22:11.426Z,11.50
2023-01-19T01:24:38.228Z,10.90
2023-01-19T01:27:04.878Z,11.10
2023-01-19T01:29:31.488Z,11.95
2023-01-19T01:31:58.121Z,12.38
2023-01-19T01:34:25.058Z,12.05
2023-01-19T01:36:51.703Z,11.60
2023-01-19T01:39:18.357Z,10.60
2023-01-19T01:41:44.895Z,11.38
2023-01-19T01:45:02.985Z,9.60
2023-01-19T01:47:41.782Z,9.93
2023-01-19T01:50:17.695Z,12.35
2023-01-19T01:53:05.973Z,9.88
2023-01-19T01:55:39.231Z,10.48
2023-01-19T01:58:07.468Z,11.20
2023-01-19T02:00:54.102Z,11.60
2023-01-19T02:03:23.595Z,11.80
2023-01-19T02:05:51.057Z,9.60
2023-01-19T02:08:51.907Z,9.02
2023-01-19T02:11:37.405Z,8.18
2023-01-19T02:14:07.140Z,10.15
2023-01-19T02:16:36.325Z,11.35
2023-01-19T02:19:05.110Z,10.18
2023-01-19T02:21:35.179Z,8.50
2023-01-19T02:24:03.107Z,8.70
2023-01-19T02:26:31.477Z,9.63
2023-01-19T02:29:08.264Z,9.15
2023-01-19T02:31:37.244Z,7.97
2023-01-19T02:34:06.046Z,8.80
2023-01-19T02:36:38.269Z,8.93
2023-01-19T02:39:06.556Z,9.05
2023-01-19T02:41:40.047Z,10.75
2023-01-19T02:44:10.089Z,9.48
2023-01-19T02:46:38.515Z,9.18
2023-01-19T02:49:05.191Z,8.75
2023-01-19T02:51:32.226Z,8.57
2023-01-19T02:54:04.844Z,8.82
2023-01-19T02:56:37.221Z,8.73
2023-01-19T03:02:11.919Z,8.13
2023-01-19T03:05:00.826Z,8.75
2023-01-19T03:07:42.131Z,9.07
2023-01-19T03:10:19.382Z,10.00
2023-01-19T03:12:52.686Z,9.32
2023-01-19T03:15:30.083Z,8.38
2023-01-19T03:18:00.165Z,10.02
2023-01-19T03:20:28.825Z,8.98
2023-01-19T03:23:01.439Z,9.07
2023-01-19T03:25:33.229Z,8.90
2023-01-19T03:28:00.271Z,9.75
2023-01-19T03:30:34.672Z,9.73
2023-01-19T03:33:16.208Z,8.40
2023-01-19T03:35:49.025Z,8.57
2023-01-19T03:38:18.659Z,8.38
2023-01-19T03:40:47.490Z,7.45
2023-01-19T03:43:16.809Z,10.00
2023-01-19T03:45:44.201Z,8.93
2023-01-19T03:48:11.042Z,8.77
2023-01-19T03:50:37.671Z,9.43
2023-01-19T03:53:11.452Z,8.43
2023-01-19T03:55:41.090Z,10.60
2023-01-19T03:58:08.200Z,8.43
2023-01-19T04:00:36.539Z,8.43
2023-01-19T04:03:05.169Z,8.23
2023-01-19T04:05:32.638Z,8.02
2023-01-19T04:07:59.297Z,8.35
2023-01-19T04:10:25.929Z,10.90
2023-01-19T04:12:58.379Z,9.27
2023-01-19T04:15:25.632Z,8.85
2023-01-19T04:17:52.643Z,9.45
2023-01-19T04:20:19.702Z,7.88
2023-01-19T04:22:46.291Z,10.60
2023-01-19T04:25:12.883Z,10.02
2023-01-19T04:27:39.445Z,8.57
2023-01-19T04:30:06.789Z,7.38
2023-01-19T04:32:33.454Z,8.18
2023-01-19T04:35:00.114Z,9.23
2023-01-19T04:37:26.663Z,7.85
2023-01-19T04:39:53.252Z,8.32
2023-01-19T04:42:19.856Z,9.43
2023-01-19T04:44:46.661Z,9.15
2023-01-19T04:47:13.202Z,8.70
2023-01-19T04:49:40.413Z,8.90
2023-01-19T04:52:06.970Z,9.05
2023-01-19T04:54:33.577Z,10.07
2023-01-19T04:57:00.190Z,7.53
2023-01-19T04:59:26.824Z,8.60
2023-01-19T05:01:53.418Z,11.40
2023-01-19T05:04:20.109Z,9.48
2023-01-19T05:06:46.699Z,9.13
2023-01-19T05:09:15.265Z,9.70
2023-01-19T05:11:41.859Z,8.93
2023-01-19T05:14:08.471Z,9.82
2023-01-19T05:16:35.508Z,10.10
2023-01-19T05:19:02.124Z,9.30
2023-01-19T05:21:28.722Z,9.32
2023-01-19T05:23:55.279Z,10.18
2023-01-19T05:26:21.907Z,10.95
2023-01-19T05:28:48.672Z,12.35
2023-01-19T05:31:15.860Z,12.20
2023-01-19T05:33:42.991Z,9.45
2023-01-19T05:36:09.822Z,10.00
2023-01-19T05:38:36.582Z,14.68
2023-01-19T05:41:03.576Z,12.73
2023-01-19T05:43:30.137Z,11.57
2023-01-19T05:45:56.727Z,11.35
2023-01-19T05:48:23.316Z,10.98
2023-01-19T05:50:49.899Z,12.65
2023-01-19T05:53:17.054Z,11.52
2023-01-19T05:55:43.767Z,9.45
2023-01-19T05:58:10.361Z,11.93
2023-01-19T06:00:37.018Z,18.35
2023-01-19T06:03:04.183Z,15.13
2023-01-19T06:05:30.976Z,13.98
2023-01-19T06:07:57.872Z,11.20
2023-01-19T06:10:24.504Z,13.05
2023-01-19T06:12:52.498Z,117.60
2023-01-19T06:15:19.833Z,37.92
2023-01-19T06:17:46.442Z,15.52
2023-01-19T06:20:14.205Z,15.82
2023-01-19T06:22:40.807Z,17.77
2023-01-19T06:25:07.700Z,15.43
2023-01-19T06:27:34.425Z,15.70
2023-01-19T06:30:00.996Z,18.65
2023-01-19T06:32:27.756Z,35.60
2023-01-19T06:34:54.367Z,14.90
2023-01-19T06:37:21.069Z,16.35
2023-01-19T06:39:47.690Z,15.60
2023-01-19T06:42:14.421Z,16.67
2023-01-19T06:44:47.232Z,15.25
2023-01-19T06:47:17.438Z,15.77
2023-01-19T06:49:45.320Z,14.65
2023-01-19T06:52:15.934Z,21.95
2023-01-19T06:54:43.681Z,18.48
2023-01-19T06:57:12.462Z,42.25
2023-01-19T06:59:39.240Z,15.13
2023-01-19T07:02:28.005Z,17.50
2023-01-19T07:04:52.858Z,19.20
2023-01-19T07:07:19.408Z,16.00
2023-01-19T07:09:46.018Z,14.60
2023-01-19T07:12:14.677Z,16.38
2023-01-19T07:14:41.247Z,15.27
2023-01-19T07:17:08.693Z,16.55
2023-01-19T07:19:35.465Z,15.13
2023-01-19T07:22:03.181Z,14.98
2023-01-19T07:24:34.227Z,18.38
2023-01-19T07:27:00.916Z,16.83
2023-01-19T07:29:27.482Z,16.33
2023-01-19T07:31:54.726Z,17.08
2023-01-19T07:34:21.760Z,13.70
2023-01-19T07:36:48.778Z,17.42
2023-01-19T07:39:15.823Z,17.33
2023-01-19T07:41:42.424Z,15.38
2023-01-19T07:44:09.309Z,17.33
2023-01-19T07:46:35.964Z,16.05
2023-01-19T07:49:02.658Z,18.85
2023-01-19T07:51:29.283Z,16.63
2023-01-19T07:53:55.930Z,17.00
2023-01-19T07:56:24.271Z,14.82
2023-01-19T07:58:52.431Z,16.15
2023-01-19T08:01:19.462Z,14.13
2023-01-19T08:03:47.930Z,13.75
2023-01-19T08:06:32.641Z,14.80
2023-01-19T08:08:59.400Z,14.07
2023-01-19T08:11:26.078Z,13.38
2023-01-19T08:13:52.644Z,12.30
2023-01-19T08:16:19.339Z,12.60
2023-01-19T08:18:46.130Z,11.80
2023-01-19T08:21:12.746Z,10.98
2023-01-19T08:23:39.441Z,12.38
2023-01-19T08:26:20.553Z,12.55
2023-01-19T08:28:47.294Z,8.60
2023-01-19T08:31:20.856Z,8.25
2023-01-19T08:33:49.343Z,9.82
2023-01-19T08:36:16.727Z,9.63
2023-01-19T08:38:45.449Z,8.48
2023-01-19T08:41:13.138Z,8.73
2023-01-19T08:43:39.715Z,9.65
2023-01-19T08:46:06.787Z,9.05
2023-01-19T08:48:33.559Z,7.80
2023-01-19T08:51:00.568Z,8.20
2023-01-19T08:53:27.351Z,9.07
2023-01-19T08:55:57.426Z,9.10
2023-01-19T08:58:24.192Z,34.15
2023-01-19T09:00:52.612Z,17.73
2023-01-19T09:03:21.607Z,7.85
2023-01-19T09:05:48.666Z,7.30
2023-01-19T09:08:15.444Z,7.85
2023-01-19T09:10:47.567Z,6.88
2023-01-19T09:13:15.074Z,5.75
2023-01-19T09:15:43.189Z,6.68
2023-01-19T09:18:13.716Z,6.53
2023-01-19T09:20:44.464Z,5.45
2023-01-19T09:23:13.219Z,6.68
2023-01-19T09:25:41.121Z,6.47
2023-01-19T09:28:09.752Z,6.15
2023-01-19T09:30:38.587Z,6.32
2023-01-19T09:33:07.905Z,6.45
2023-01-19T09:35:35.070Z,7.75
2023-01-19T09:38:02.062Z,4.90
2023-01-19T09:40:29.175Z,5.57
2023-01-19T09:42:59.478Z,4.80
2023-01-19T09:45:38.710Z,5.35
2023-01-19T09:48:29.947Z,6.20
2023-01-19T09:51:02.062Z,6.00
2023-01-19T09:54:06.336Z,5.72
2023-01-19T09:56:33.372Z,8.15
2023-01-19T09:59:01.136Z,6.30
2023-01-19T10:01:37.992Z,5.95
2023-01-19T10:04:19.563Z,8.38
2023-01-19T10:06:48.538Z,8.02
2023-01-19T10:09:43.211Z,7.45
2023-01-19T10:12:21.450Z,6.97
2023-01-19T10:15:05.078Z,9.07
2023-01-19T10:17:50.419Z,6.45
2023-01-19T10:20:26.512Z,7.88
2023-01-19T10:22:53.915Z,6.38
2023-01-19T10:25:25.532Z,7.22
2023-01-19T10:27:52.216Z,7.03
2023-01-19T10:30:23.689Z,5.68
2023-01-19T10:32:51.128Z,7.43
2023-01-19T10:35:25.323Z,7.18
2023-01-19T10:38:01.505Z,7.53
2023-01-19T10:40:37.436Z,7.40
2023-01-19T10:43:37.346Z,7.55
2023-01-19T10:46:17.338Z,6.75
2023-01-19T10:48:47.740Z,6.72
2023-01-19T10:51:14.719Z,6.63
2023-01-19T10:54:03.795Z,6.85
2023-01-19T10:56:35.768Z,6.72
2023-01-19T10:59:05.813Z,7.90
2023-01-19T11:01:36.929Z,6.05
2023-01-19T11:04:27.103Z,7.32
2023-01-19T11:07:13.132Z,6.18
2023-01-19T11:09:39.747Z,6.40
2023-01-19T11:12:22.599Z,7.07
2023-01-19T11:14:50.450Z,7.35
2023-01-19T11:17:22.740Z,6.35
2023-01-19T11:20:00.893Z,7.28
2023-01-19T11:22:31.540Z,7.25
2023-01-19T11:25:04.045Z,6.90
2023-01-19T11:27:34.720Z,7.28
2023-01-19T11:30:14.979Z,7.18
2023-01-19T11:32:42.985Z,7.93
2023-01-19T11:35:39.441Z,5.32
2023-01-19T11:38:12.123Z,7.43
2023-01-19T11:40:40.342Z,8.63
2023-01-19T11:43:12.726Z,7.93
2023-01-19T11:48:07.715Z,6.35
2023-01-19T11:50:54.489Z,10.13
2023-01-19T11:53:24.993Z,8.35
2023-01-19T11:56:14.944Z,7.50
2023-01-19T11:58:47.438Z,6.60
2023-01-19T12:04:04.540Z,6.50
2023-01-19T12:06:35.346Z,6.85
2023-01-19T12:09:13.283Z,9.02
2023-01-19T12:12:06.104Z,31.98
2023-01-19T12:17:25.755Z,8.32
2023-01-19T12:20:01.178Z,8.13
2023-01-19T12:22:30.004Z,7.43
2023-01-19T12:25:06.842Z,8.55
2023-01-19T12:27:40.537Z,7.57
2023-01-19T12:30:28.049Z,6.15
2023-01-19T12:33:20.579Z,8.70
2023-01-19T12:36:01.087Z,7.60
2023-01-19T12:38:43.049Z,7.97
2023-01-19T12:41:32.915Z,6.93
2023-01-19T12:44:16.081Z,7.95
2023-01-19T12:46:42.664Z,7.70
2023-01-19T12:49:24.525Z,10.05
2023-01-19T12:51:54.063Z,7.80
2023-01-19T12:54:34.478Z,6.88
2023-01-19T12:57:08.739Z,7.40
2023-01-19T12:59:37.400Z,9.95
2023-01-19T13:02:22.852Z,6.43
2023-01-19T13:05:11.809Z,5.93
2023-01-19T13:08:03.383Z,6.25
2023-01-19T13:11:10.471Z,5.80
2023-01-19T13:13:43.755Z,5.75
2023-01-19T13:16:19.739Z,5.10
2023-01-19T13:18:48.019Z,5.75
2023-01-19T13:21:25.641Z,5.75
2023-01-19T13:23:55.400Z,4.63
2023-01-19T13:26:43.546Z,5.45
2023-01-19T13:29:22.384Z,4.43
2023-01-19T13:31:49.610Z,5.63
2023-01-19T13:34:22.863Z,4.97
2023-01-19T13:36:59.310Z,4.43
2023-01-19T13:39:37.446Z,5.82
2023-01-19T13:42:30.782Z,4.55
2023-01-19T13:45:00.804Z,3.45
2023-01-19T13:47:43.711Z,4.30
2023-01-19T13:50:23.869Z,4.90
2023-01-19T13:52:53.866Z,4.63
2023-01-19T13:55:21.519Z,3.80
2023-01-19T13:57:49.546Z,3.72
2023-01-19T14:00:25.382Z,4.72
2023-01-19T14:03:02.279Z,3.55
2023-01-19T14:05:33.118Z,3.30
2023-01-19T14:08:04.053Z,3.88
2023-01-19T14:10:31.322Z,4.38
2023-01-19T14:13:00.154Z,3.65
2023-01-19T14:15:28.116Z,3.42
2023-01-19T14:18:11.125Z,3.53
2023-01-19T14:20:38.399Z,3.63
2023-01-19T14:23:06.495Z,3.75
2023-01-19T14:25:35.707Z,3.50
2023-01-19T14:28:40.236Z,3.67
2023-01-19T14:31:26.499Z,2.85
2023-01-19T14:33:55.770Z,3.28
2023-01-19T14:36:22.306Z,3.78
2023-01-19T14:38:51.639Z,3.78
2023-01-19T14:41:36.084Z,5.38
2023-01-19T14:44:09.037Z,4.03
2023-01-19T14:46:36.340Z,2.95
2023-01-19T14:49:05.785Z,3.47
2023-01-19T14:51:32.701Z,4.05
2023-01-19T14:54:01.865Z,4.07
2023-01-19T14:56:31.851Z,4.88
2023-01-19T14:59:00.870Z,3.47
2023-01-19T15:01:28.626Z,4.95
2023-01-19T15:03:58.168Z,3.85
2023-01-19T15:06:26.299Z,3.80
2023-01-19T15:08:54.259Z,5.22
2023-01-19T15:11:31.142Z,3.05
2023-01-19T15:13:59.099Z,3.90
2023-01-19T15:16:28.301Z,3.63
2023-01-19T15:18:55.407Z,3.78
2023-01-19T15:21:23.737Z,4.45
2023-01-19T15:23:50.670Z,4.30
2023-01-19T15:26:19.314Z,4.30
2023-01-19T15:28:46.987Z,3.58
2023-01-19T15:31:16.003Z,8.30
2023-01-19T15:33:43.109Z,4.45
2023-01-19T15:36:17.020Z,4.25
2023-01-19T15:38:45.096Z,3.92
2023-01-19T15:41:26.017Z,3.63
2023-01-19T15:43:53.032Z,5.13
2023-01-19T15:46:20.899Z,3.50
2023-01-19T15:48:48.234Z,5.32
2023-01-19T15:51:17.927Z,4.90
2023-01-19T15:53:45.101Z,4.72
2023-01-19T15:56:16.388Z,4.10
2023-01-19T15:58:43.625Z,5.05
2023-01-19T16:01:13.252Z,5.38
2023-01-19T16:03:39.965Z,4.32
2023-01-19T16:06:07.231Z,4.35
2023-01-19T16:08:34.314Z,4.55
2023-01-19T16:11:08.910Z,5.93
2023-01-19T16:13:35.817Z,4.63
2023-01-19T16:16:08.981Z,4.32
2023-01-19T16:18:36.197Z,3.80
2023-01-19T16:21:02.749Z,5.28
2023-01-19T16:23:29.320Z,12.57
2023-01-19T16:26:01.105Z,18.98
2023-01-19T16:28:27.887Z,8.38
2023-01-19T16:30:54.581Z,6.70
2023-01-19T16:33:21.191Z,20.17
2023-01-19T16:35:48.207Z,13.63
2023-01-19T16:38:15.107Z,6.35
2023-01-19T16:40:44.532Z,5.50
2023-01-19T16:43:11.973Z,6.18
2023-01-19T16:45:55.906Z,6.10
2023-01-19T16:48:22.680Z,7.63
2023-01-19T16:51:03.898Z,5.60
2023-01-19T16:53:31.222Z,4.95
2023-01-19T16:55:57.894Z,7.35
2023-01-19T16:58:24.573Z,6.05
2023-01-19T17:00:51.332Z,7.30
2023-01-19T17:03:18.040Z,5.03
2023-01-19T17:05:49.609Z,7.60
2023-01-19T17:08:18.670Z,7.50
2023-01-19T17:10:45.909Z,9.75
2023-01-19T17:13:12.525Z,12.85
2023-01-19T17:15:39.375Z,14.68
2023-01-19T17:18:06.109Z,16.88
2023-01-19T17:20:33.947Z,19.27
2023-01-19T17:23:00.826Z,21.08
2023-01-19T17:25:27.410Z,20.48
2023-01-19T17:27:53.981Z,22.33
2023-01-19T17:30:20.722Z,20.73
2023-01-19T17:32:47.311Z,21.60
2023-01-19T17:35:13.898Z,22.90
2023-01-19T17:37:40.486Z,26.15
2023-01-19T17:40:07.632Z,24.40
2023-01-19T17:42:39.128Z,25.17
2023-01-19T17:45:06.133Z,22.75
2023-01-19T17:47:32.763Z,24.88
2023-01-19T17:50:00.439Z,24.25
2023-01-19T17:52:27.356Z,26.92
2023-01-19T17:54:53.902Z,27.77
2023-01-19T17:57:20.438Z,28.80
2023-01-19T17:59:47.836Z,25.00
2023-01-19T18:02:14.561Z,23.88
2023-01-19T18:04:41.258Z,22.38
2023-01-19T18:07:07.925Z,23.67
2023-01-19T18:09:34.594Z,20.80
2023-01-19T18:12:01.246Z,20.25
2023-01-19T18:14:27.852Z,22.73
2023-01-19T18:16:54.433Z,23.23
2023-01-19T18:19:22.410Z,22.52
2023-01-19T18:21:49.088Z,20.98
2023-01-19T18:24:15.739Z,26.17
2023-01-19T18:26:42.716Z,24.35
2023-01-19T18:29:09.449Z,21.40
2023-01-19T18:31:36.174Z,21.75
2023-01-19T18:34:02.993Z,22.38
2023-01-19T18:36:31.973Z,23.65
2023-01-19T18:38:58.630Z,20.95
2023-01-19T18:41:25.248Z,20.85
2023-01-19T18:43:53.568Z,21.92
2023-01-19T18:46:21.247Z,19.52
2023-01-19T18:48:47.941Z,18.08
2023-01-19T18:51:16.240Z,18.27
2023-01-19T18:53:44.162Z,18.25
2023-01-19T18:56:12.613Z,17.40
2023-01-19T18:58:39.617Z,19.88
2023-01-19T19:01:21.800Z,16.33
2023-01-19T19:03:48.803Z,17.92
2023-01-19T19:06:16.826Z,20.15
2023-01-19T19:08:44.188Z,23.92
2023-01-19T19:11:13.358Z,18.17
2023-01-19T19:13:40.906Z,19.23
2023-01-19T19:16:09.706Z,19.45
2023-01-19T19:18:38.400Z,19.98
2023-01-19T19:21:07.278Z,18.48
2023-01-19T19:23:34.135Z,17.77
2023-01-19T19:26:09.683Z,122.65
2023-01-19T19:28:37.626Z,23.38
2023-01-19T19:31:13.069Z,18.65
2023-01-19T19:33:40.277Z,19.00
2023-01-19T19:36:08.278Z,16.35
2023-01-19T19:38:36.837Z,14.75
2023-01-19T19:41:12.758Z,17.10
2023-01-19T19:43:39.559Z,17.55
2023-01-19T19:46:08.967Z,16.38
2023-01-19T19:48:38.893Z,18.83
2023-01-19T19:51:17.518Z,17.48
2023-01-19T19:53:45.125Z,18.42
2023-01-19T19:56:13.298Z,21.08
2023-01-19T19:58:41.858Z,18.63
2023-01-19T20:01:10.997Z,18.00
2023-01-19T20:03:38.105Z,19.67
2023-01-19T20:06:10.394Z,20.30
2023-01-19T20:08:37.516Z,21.25
2023-01-19T20:11:06.281Z,19.77
2023-01-19T20:13:34.694Z,23.05
2023-01-19T20:16:03.990Z,22.25
2023-01-19T20:18:31.286Z,24.20
2023-01-19T20:20:59.428Z,21.48
2023-01-19T20:23:26.823Z,26.30
2023-01-19T20:25:53.730Z,26.67
2023-01-19T20:28:20.343Z,25.92
2023-01-19T20:30:47.027Z,26.15
2023-01-19T20:33:13.765Z,21.88
2023-01-19T20:35:40.329Z,25.40
2023-01-19T20:38:06.970Z,25.08
2023-01-19T20:40:33.531Z,23.98
2023-01-19T20:43:00.198Z,23.45
2023-01-19T20:45:26.907Z,27.40
2023-01-19T20:47:54.307Z,29.08
2023-01-19T20:50:20.967Z,25.23
2023-01-19T20:52:48.093Z,29.38
2023-01-19T20:55:15.017Z,24.25
2023-01-19T20:57:42.031Z,24.67
2023-01-19T21:00:09.558Z,27.88
2023-01-19T21:02:36.175Z,21.50
2023-01-19T21:05:02.833Z,22.42
2023-01-19T21:07:29.391Z,26.52
2023-01-19T21:09:56.103Z,24.73
2023-01-19T21:12:23.196Z,26.08
2023-01-19T21:14:49.780Z,25.70
2023-01-19T21:17:16.630Z,23.98
2023-01-19T21:19:43.198Z,25.75
2023-01-19T21:22:09.742Z,23.77
2023-01-19T21:24:36.416Z,25.27
2023-01-19T21:27:03.056Z,27.88
2023-01-19T21:29:29.798Z,24.42
2023-01-19T21:31:56.509Z,25.80
2023-01-19T21:34:23.593Z,30.40
2023-01-19T21:36:50.163Z,24.65
2023-01-19T21:39:17.522Z,26.27
2023-01-19T21:41:45.068Z,26.13
2023-01-19T21:44:12.728Z,29.70
2023-01-19T21:46:39.414Z,29.05
2023-01-19T21:49:08.087Z,22.65
2023-01-19T21:51:36.690Z,27.35
2023-01-19T21:54:05.157Z,30.58
2023-01-19T21:56:31.938Z,24.60
2023-01-19T21:59:02.130Z,22.85
2023-01-19T22:01:29.400Z,21.23
2023-01-19T22:03:57.480Z,26.95
2023-01-19T22:06:25.353Z,21.10
2023-01-19T22:08:52.577Z,20.85
2023-01-19T22:11:20.865Z,22.83
2023-01-19T22:13:47.946Z,22.88
2023-01-19T22:16:17.796Z,21.88
2023-01-19T22:18:48.947Z,21.35
2023-01-19T22:21:23.865Z,28.80
2023-01-19T22:23:55.398Z,27.50
2023-01-19T22:26:22.787Z,25.67
2023-01-19T22:28:53.761Z,27.65
2023-01-19T22:31:20.542Z,33.80
2023-01-19T22:33:48.988Z,31.83
2023-01-19T22:36:34.085Z,31.33
2023-01-19T22:39:03.440Z,35.00
2023-01-19T22:41:33.079Z,33.40
2023-01-19T22:44:02.325Z,34.40
2023-01-19T22:46:31.895Z,33.50
2023-01-19T22:48:58.903Z,35.65
2023-01-19T22:51:26.950Z,34.42
2023-01-19T22:53:53.711Z,34.47
2023-01-19T22:56:22.937Z,32.30
2023-01-19T22:58:50.024Z,34.72
2023-01-19T23:01:19.784Z,35.17
2023-01-19T23:03:46.779Z,38.33
2023-01-19T23:06:16.254Z,35.22
2023-01-19T23:08:43.657Z,34.38
2023-01-19T23:11:16.175Z,38.35
2023-01-19T23:16:10.946Z,34.47
2023-01-19T23:18:38.044Z,33.90
2023-01-19T23:21:10.426Z,33.25
2023-01-19T23:23:37.400Z,35.40
2023-01-19T23:26:08.283Z,31.20
2023-01-19T23:28:36.554Z,34.90
2023-01-19T23:31:22.513Z,36.97
2023-01-19T23:33:54.095Z,32.78
2023-01-19T23:36:22.006Z,32.85
2023-01-19T23:38:50.781Z,35.45
2023-01-19T23:41:18.137Z,35.53
2023-01-19T23:43:44.789Z,32.80
2023-01-19T23:46:11.974Z,33.60
2023-01-19T23:48:39.379Z,34.53
2023-01-19T23:51:10.866Z,34.47
2023-01-19T23:53:37.977Z,35.55
2023-01-19T23:56:15.196Z,37.22
2023-01-19T23:58:41.879Z,37.80
